sensor_id;sensor_type;location;lat;lon;timestamp;temperature;humidity
50969;DHT22;36982;51.474;7.228;2023-07-31T00:02:14;16.00;99.90
50969;DHT22;36982;51.474;7.228;2023-07-31T00:04:40;16.00;99.90
50969;DHT22;36982;51.474;7.228;2023-07-31T00:07:05;16.20;99.90
50969;DHT22;36982;51.474;7.228;2023-07-31T00:09:32;16.10;99.90
50969;DHT22;36982;51.474;7.228;2023-07-31T00:11:58;16.00;99.90
50969;DHT22;36982;51.474;7.228;2023-07-31T00:14:24;16.00;99.90
50969;DHT22;36982;51.474;7.228;2023-07-31T00:16:49;16.10;99.90
50969;DHT22;36982;51.474;7.228;2023-07-31T00:19:15;16.10;99.90
50969;DHT22;36982;51.474;7.228;2023-07-31T00:21:41;16.10;99.90
50969;DHT22;36982;51.474;7.228;2023-07-31T00:24:06;16.00;99.90
50969;DHT22;36982;51.474;7.228;2023-07-31T00:26:32;16.10;99.90
50969;DHT22;36982;51.474;7.228;2023-07-31T00:28:57;16.10;99.90
50969;DHT22;36982;51.474;7.228;2023-07-31T00:31:23;16.10;99.90
50969;DHT22;36982;51.474;7.228;2023-07-31T00:33:48;16.10;99.90
50969;DHT22;36982;51.474;7.228;2023-07-31T00:36:14;16.10;99.90
50969;DHT22;36982;51.474;7.228;2023-07-31T00:38:40;16.20;99.90
50969;DHT22;36982;51.474;7.228;2023-07-31T00:41:05;16.10;99.90
50969;DHT22;36982;51.474;7.228;2023-07-31T00:43:31;16.10;99.90
50969;DHT22;36982;51.474;7.228;2023-07-31T00:45:56;16.10;99.90
50969;DHT22;36982;51.474;7.228;2023-07-31T00:48:22;16.00;99.90
50969;DHT22;36982;51.474;7.228;2023-07-31T00:50:48;16.10;99.90
50969;DHT22;36982;51.474;7.228;2023-07-31T00:53:14;16.00;99.90
50969;DHT22;36982;51.474;7.228;2023-07-31T00:55:40;16.10;99.90
50969;DHT22;36982;51.474;7.228;2023-07-31T00:58:05;16.10;99.90
50969;DHT22;36982;51.474;7.228;2023-07-31T01:00:31;16.10;99.90
50969;DHT22;36982;51.474;7.228;2023-07-31T01:02:56;16.00;99.90
50969;DHT22;36982;51.474;7.228;2023-07-31T01:05:41;16.00;99.90
50969;DHT22;36982;51.474;7.228;2023-07-31T01:08:11;16.10;99.90
50969;DHT22;36982;51.474;7.228;2023-07-31T01:10:46;16.20;99.90
50969;DHT22;36982;51.474;7.228;2023-07-31T01:13:15;15.90;99.90
50969;DHT22;36982;51.474;7.228;2023-07-31T01:15:40;15.90;99.90
50969;DHT22;36982;51.474;7.228;2023-07-31T01:18:06;16.00;99.90
50969;DHT22;36982;51.474;7.228;2023-07-31T01:20:31;16.00;99.90
50969;DHT22;36982;51.474;7.228;2023-07-31T01:23:20;16.00;99.90
50969;DHT22;36982;51.474;7.228;2023-07-31T01:26:20;16.10;99.90
50969;DHT22;36982;51.474;7.228;2023-07-31T01:29:08;16.10;99.90
50969;DHT22;36982;51.474;7.228;2023-07-31T01:31:36;16.10;99.90
50969;DHT22;36982;51.474;7.228;2023-07-31T01:34:03;16.10;99.90
50969;DHT22;36982;51.474;7.228;2023-07-31T01:36:30;16.10;99.90
50969;DHT22;36982;51.474;7.228;2023-07-31T01:39:00;16.10;99.90
50969;DHT22;36982;51.474;7.228;2023-07-31T01:41:27;16.10;99.90
50969;DHT22;36982;51.474;7.228;2023-07-31T01:43:52;16.10;99.90
50969;DHT22;36982;51.474;7.228;2023-07-31T01:46:18;16.10;99.90
50969;DHT22;36982;51.474;7.228;2023-07-31T01:48:43;15.90;99.90
50969;DHT22;36982;51.474;7.228;2023-07-31T01:51:09;16.10;99.90
50969;DHT22;36982;51.474;7.228;2023-07-31T01:53:34;16.00;99.90
50969;DHT22;36982;51.474;7.228;2023-07-31T01:56:00;16.10;99.90
50969;DHT22;36982;51.474;7.228;2023-07-31T01:58:26;16.00;99.90
50969;DHT22;36982;51.474;7.228;2023-07-31T02:00:51;16.10;99.90
50969;DHT22;36982;51.474;7.228;2023-07-31T02:03:17;16.00;99.90
50969;DHT22;36982;51.474;7.228;2023-07-31T02:05:46;16.00;99.90
50969;DHT22;36982;51.474;7.228;2023-07-31T02:08:12;16.10;99.90
50969;DHT22;36982;51.474;7.228;2023-07-31T02:10:38;16.00;99.90
50969;DHT22;36982;51.474;7.228;2023-07-31T02:13:03;16.00;99.90
50969;DHT22;36982;51.474;7.228;2023-07-31T02:15:30;16.00;99.90
50969;DHT22;36982;51.474;7.228;2023-07-31T02:17:55;16.00;99.90
50969;DHT22;36982;51.474;7.228;2023-07-31T02:20:21;16.00;99.90
50969;DHT22;36982;51.474;7.228;2023-07-31T02:22:47;16.00;99.90
50969;DHT22;36982;51.474;7.228;2023-07-31T02:25:12;16.00;99.90
50969;DHT22;36982;51.474;7.228;2023-07-31T02:27:38;16.10;99.90
50969;DHT22;36982;51.474;7.228;2023-07-31T02:30:03;16.00;99.90
50969;DHT22;36982;51.474;7.228;2023-07-31T02:32:29;16.10;99.90
50969;DHT22;36982;51.474;7.228;2023-07-31T02:34:55;16.10;99.90
50969;DHT22;36982;51.474;7.228;2023-07-31T02:37:20;16.10;99.90
50969;DHT22;36982;51.474;7.228;2023-07-31T02:39:46;16.10;99.90
50969;DHT22;36982;51.474;7.228;2023-07-31T02:42:12;16.00;99.90
50969;DHT22;36982;51.474;7.228;2023-07-31T02:44:38;16.00;99.90
50969;DHT22;36982;51.474;7.228;2023-07-31T02:47:04;16.10;99.90
50969;DHT22;36982;51.474;7.228;2023-07-31T02:49:29;16.10;99.90
50969;DHT22;36982;51.474;7.228;2023-07-31T02:51:55;16.00;99.90
50969;DHT22;36982;51.474;7.228;2023-07-31T02:54:20;16.00;99.90
50969;DHT22;36982;51.474;7.228;2023-07-31T02:56:47;16.10;99.90
50969;DHT22;36982;51.474;7.228;2023-07-31T02:59:13;16.20;99.90
50969;DHT22;36982;51.474;7.228;2023-07-31T03:01:39;16.10;99.90
50969;DHT22;36982;51.474;7.228;2023-07-31T03:04:04;16.10;99.90
50969;DHT22;36982;51.474;7.228;2023-07-31T03:06:30;16.10;99.90
50969;DHT22;36982;51.474;7.228;2023-07-31T03:08:56;16.10;99.90
50969;DHT22;36982;51.474;7.228;2023-07-31T03:11:21;16.10;99.90
50969;DHT22;36982;51.474;7.228;2023-07-31T03:13:47;16.00;99.90
50969;DHT22;36982;51.474;7.228;2023-07-31T03:16:13;16.10;99.90
50969;DHT22;36982;51.474;7.228;2023-07-31T03:18:38;16.10;99.90
50969;DHT22;36982;51.474;7.228;2023-07-31T03:21:04;16.10;99.90
50969;DHT22;36982;51.474;7.228;2023-07-31T03:23:30;16.10;99.90
50969;DHT22;36982;51.474;7.228;2023-07-31T03:26:06;16.00;99.90
50969;DHT22;36982;51.474;7.228;2023-07-31T03:28:32;16.10;99.90
50969;DHT22;36982;51.474;7.228;2023-07-31T03:30:57;16.20;99.90
50969;DHT22;36982;51.474;7.228;2023-07-31T03:33:23;16.10;99.90
50969;DHT22;36982;51.474;7.228;2023-07-31T03:35:48;16.00;99.90
50969;DHT22;36982;51.474;7.228;2023-07-31T03:38:14;16.20;99.90
50969;DHT22;36982;51.474;7.228;2023-07-31T03:40:40;16.30;99.90
50969;DHT22;36982;51.474;7.228;2023-07-31T03:43:05;16.30;99.90
50969;DHT22;36982;51.474;7.228;2023-07-31T03:45:31;16.30;99.90
50969;DHT22;36982;51.474;7.228;2023-07-31T03:47:57;16.30;99.90
50969;DHT22;36982;51.474;7.228;2023-07-31T03:50:22;16.40;99.90
50969;DHT22;36982;51.474;7.228;2023-07-31T03:52:48;16.40;99.90
50969;DHT22;36982;51.474;7.228;2023-07-31T03:55:14;16.30;99.90
50969;DHT22;36982;51.474;7.228;2023-07-31T03:57:39;16.40;99.90
50969;DHT22;36982;51.474;7.228;2023-07-31T04:00:05;16.40;99.90
50969;DHT22;36982;51.474;7.228;2023-07-31T04:02:31;16.40;99.90
50969;DHT22;36982;51.474;7.228;2023-07-31T04:04:57;16.40;99.90
50969;DHT22;36982;51.474;7.228;2023-07-31T04:07:22;16.30;99.90
50969;DHT22;36982;51.474;7.228;2023-07-31T04:09:48;16.40;99.90
50969;DHT22;36982;51.474;7.228;2023-07-31T04:12:13;16.40;99.90
50969;DHT22;36982;51.474;7.228;2023-07-31T04:14:39;16.40;99.90
50969;DHT22;36982;51.474;7.228;2023-07-31T04:17:04;16.40;99.90
50969;DHT22;36982;51.474;7.228;2023-07-31T04:19:30;16.50;99.90
50969;DHT22;36982;51.474;7.228;2023-07-31T04:21:55;16.50;99.90
50969;DHT22;36982;51.474;7.228;2023-07-31T04:24:21;16.50;99.90
50969;DHT22;36982;51.474;7.228;2023-07-31T04:26:53;16.50;99.90
50969;DHT22;36982;51.474;7.228;2023-07-31T04:29:19;16.60;99.90
50969;DHT22;36982;51.474;7.228;2023-07-31T04:31:45;16.50;99.90
50969;DHT22;36982;51.474;7.228;2023-07-31T04:34:10;16.70;99.90
50969;DHT22;36982;51.474;7.228;2023-07-31T04:36:37;16.60;99.90
50969;DHT22;36982;51.474;7.228;2023-07-31T04:39:03;16.60;99.90
50969;DHT22;36982;51.474;7.228;2023-07-31T04:41:28;16.80;99.90
50969;DHT22;36982;51.474;7.228;2023-07-31T04:43:54;16.70;99.90
50969;DHT22;36982;51.474;7.228;2023-07-31T04:46:19;16.80;99.90
50969;DHT22;36982;51.474;7.228;2023-07-31T04:48:45;16.70;99.90
50969;DHT22;36982;51.474;7.228;2023-07-31T04:51:11;16.60;99.90
50969;DHT22;36982;51.474;7.228;2023-07-31T04:53:36;16.60;99.90
50969;DHT22;36982;51.474;7.228;2023-07-31T04:56:02;16.70;99.90
50969;DHT22;36982;51.474;7.228;2023-07-31T04:58:28;16.60;99.90
50969;DHT22;36982;51.474;7.228;2023-07-31T05:00:53;16.50;99.90
50969;DHT22;36982;51.474;7.228;2023-07-31T05:03:19;16.60;99.90
50969;DHT22;36982;51.474;7.228;2023-07-31T05:05:44;16.70;99.90
50969;DHT22;36982;51.474;7.228;2023-07-31T05:08:10;16.70;99.90
50969;DHT22;36982;51.474;7.228;2023-07-31T05:10:35;16.60;99.90
50969;DHT22;36982;51.474;7.228;2023-07-31T05:13:01;16.70;99.90
50969;DHT22;36982;51.474;7.228;2023-07-31T05:15:27;16.80;99.90
50969;DHT22;36982;51.474;7.228;2023-07-31T05:17:52;16.70;99.90
50969;DHT22;36982;51.474;7.228;2023-07-31T05:20:18;16.70;99.90
50969;DHT22;36982;51.474;7.228;2023-07-31T05:22:43;16.80;99.90
50969;DHT22;36982;51.474;7.228;2023-07-31T05:25:09;16.90;99.90
50969;DHT22;36982;51.474;7.228;2023-07-31T05:27:34;16.80;99.90
50969;DHT22;36982;51.474;7.228;2023-07-31T05:30:00;16.80;99.90
50969;DHT22;36982;51.474;7.228;2023-07-31T05:32:26;16.80;99.90
50969;DHT22;36982;51.474;7.228;2023-07-31T05:34:52;16.90;99.90
50969;DHT22;36982;51.474;7.228;2023-07-31T05:37:19;16.90;99.90
50969;DHT22;36982;51.474;7.228;2023-07-31T05:39:44;16.90;99.90
50969;DHT22;36982;51.474;7.228;2023-07-31T05:42:10;16.90;99.90
50969;DHT22;36982;51.474;7.228;2023-07-31T05:44:36;16.90;99.90
50969;DHT22;36982;51.474;7.228;2023-07-31T05:47:01;16.90;99.90
50969;DHT22;36982;51.474;7.228;2023-07-31T05:49:27;16.90;99.90
50969;DHT22;36982;51.474;7.228;2023-07-31T05:51:52;17.00;99.90
50969;DHT22;36982;51.474;7.228;2023-07-31T05:54:18;17.00;99.90
50969;DHT22;36982;51.474;7.228;2023-07-31T05:56:44;16.90;99.90
50969;DHT22;36982;51.474;7.228;2023-07-31T05:59:11;17.10;99.90
50969;DHT22;36982;51.474;7.228;2023-07-31T06:01:37;17.10;99.90
50969;DHT22;36982;51.474;7.228;2023-07-31T06:04:03;17.00;99.90
50969;DHT22;36982;51.474;7.228;2023-07-31T06:06:29;17.00;99.90
50969;DHT22;36982;51.474;7.228;2023-07-31T06:08:54;16.90;99.90
50969;DHT22;36982;51.474;7.228;2023-07-31T06:11:21;16.70;99.90
50969;DHT22;36982;51.474;7.228;2023-07-31T06:13:46;16.70;99.90
50969;DHT22;36982;51.474;7.228;2023-07-31T06:16:13;16.80;99.90
50969;DHT22;36982;51.474;7.228;2023-07-31T06:18:39;16.70;99.90
50969;DHT22;36982;51.474;7.228;2023-07-31T06:21:05;16.80;99.90
50969;DHT22;36982;51.474;7.228;2023-07-31T06:23:31;16.90;99.90
50969;DHT22;36982;51.474;7.228;2023-07-31T06:25:57;16.80;99.90
50969;DHT22;36982;51.474;7.228;2023-07-31T06:28:30;16.90;99.90
50969;DHT22;36982;51.474;7.228;2023-07-31T06:30:57;16.90;99.90
50969;DHT22;36982;51.474;7.228;2023-07-31T06:33:22;17.00;99.90
50969;DHT22;36982;51.474;7.228;2023-07-31T06:35:48;16.90;99.90
50969;DHT22;36982;51.474;7.228;2023-07-31T06:38:13;16.90;99.90
50969;DHT22;36982;51.474;7.228;2023-07-31T06:40:39;17.00;99.90
50969;DHT22;36982;51.474;7.228;2023-07-31T06:43:05;17.10;99.90
50969;DHT22;36982;51.474;7.228;2023-07-31T06:45:36;17.20;99.90
50969;DHT22;36982;51.474;7.228;2023-07-31T06:48:03;17.30;99.90
50969;DHT22;36982;51.474;7.228;2023-07-31T06:50:30;17.30;99.90
50969;DHT22;36982;51.474;7.228;2023-07-31T06:52:56;17.30;99.90
50969;DHT22;36982;51.474;7.228;2023-07-31T06:55:22;17.20;99.90
50969;DHT22;36982;51.474;7.228;2023-07-31T06:57:49;17.30;99.90
50969;DHT22;36982;51.474;7.228;2023-07-31T07:00:16;17.30;99.90
50969;DHT22;36982;51.474;7.228;2023-07-31T07:02:42;17.10;99.90
50969;DHT22;36982;51.474;7.228;2023-07-31T07:05:08;17.10;99.90
50969;DHT22;36982;51.474;7.228;2023-07-31T07:07:34;17.10;99.90
50969;DHT22;36982;51.474;7.228;2023-07-31T07:10:00;17.10;99.90
50969;DHT22;36982;51.474;7.228;2023-07-31T07:12:29;17.10;99.90
50969;DHT22;36982;51.474;7.228;2023-07-31T07:14:54;17.20;99.90
50969;DHT22;36982;51.474;7.228;2023-07-31T07:17:20;17.10;99.90
50969;DHT22;36982;51.474;7.228;2023-07-31T07:19:47;17.10;99.90
50969;DHT22;36982;51.474;7.228;2023-07-31T07:22:13;17.00;99.90
50969;DHT22;36982;51.474;7.228;2023-07-31T07:24:39;17.00;99.90
50969;DHT22;36982;51.474;7.228;2023-07-31T07:27:05;17.00;99.90
50969;DHT22;36982;51.474;7.228;2023-07-31T07:29:30;17.10;99.90
50969;DHT22;36982;51.474;7.228;2023-07-31T07:31:56;17.00;99.90
50969;DHT22;36982;51.474;7.228;2023-07-31T07:34:28;17.00;99.90
50969;DHT22;36982;51.474;7.228;2023-07-31T07:36:54;17.10;99.90
50969;DHT22;36982;51.474;7.228;2023-07-31T07:39:20;16.90;99.90
50969;DHT22;36982;51.474;7.228;2023-07-31T07:41:47;17.00;99.90
50969;DHT22;36982;51.474;7.228;2023-07-31T07:44:13;17.00;99.90
50969;DHT22;36982;51.474;7.228;2023-07-31T07:46:39;17.00;99.90
50969;DHT22;36982;51.474;7.228;2023-07-31T07:49:05;17.10;99.90
50969;DHT22;36982;51.474;7.228;2023-07-31T07:51:30;17.20;99.90
50969;DHT22;36982;51.474;7.228;2023-07-31T07:53:57;17.20;99.90
50969;DHT22;36982;51.474;7.228;2023-07-31T07:56:23;17.20;99.90
50969;DHT22;36982;51.474;7.228;2023-07-31T07:58:50;17.10;99.90
50969;DHT22;36982;51.474;7.228;2023-07-31T08:01:15;17.10;99.90
50969;DHT22;36982;51.474;7.228;2023-07-31T08:03:41;17.20;99.90
50969;DHT22;36982;51.474;7.228;2023-07-31T08:06:07;17.30;99.90
50969;DHT22;36982;51.474;7.228;2023-07-31T08:08:34;17.20;99.90
50969;DHT22;36982;51.474;7.228;2023-07-31T08:11:00;17.20;99.90
50969;DHT22;36982;51.474;7.228;2023-07-31T08:13:26;17.20;99.90
50969;DHT22;36982;51.474;7.228;2023-07-31T08:15:51;17.20;99.90
50969;DHT22;36982;51.474;7.228;2023-07-31T08:18:17;17.10;99.90
50969;DHT22;36982;51.474;7.228;2023-07-31T08:20:43;17.10;99.90
50969;DHT22;36982;51.474;7.228;2023-07-31T08:23:09;17.10;99.90
50969;DHT22;36982;51.474;7.228;2023-07-31T08:25:38;17.00;99.90
50969;DHT22;36982;51.474;7.228;2023-07-31T08:28:04;17.00;99.90
50969;DHT22;36982;51.474;7.228;2023-07-31T08:30:30;17.00;99.90
50969;DHT22;36982;51.474;7.228;2023-07-31T08:32:56;16.90;99.90
50969;DHT22;36982;51.474;7.228;2023-07-31T08:35:24;16.90;99.90
50969;DHT22;36982;51.474;7.228;2023-07-31T08:37:50;16.90;99.90
50969;DHT22;36982;51.474;7.228;2023-07-31T08:40:15;17.00;99.90
50969;DHT22;36982;51.474;7.228;2023-07-31T08:42:45;17.00;99.90
50969;DHT22;36982;51.474;7.228;2023-07-31T08:45:16;17.10;99.90
50969;DHT22;36982;51.474;7.228;2023-07-31T08:47:45;16.90;99.90
50969;DHT22;36982;51.474;7.228;2023-07-31T08:50:13;17.10;99.90
50969;DHT22;36982;51.474;7.228;2023-07-31T08:52:39;17.10;99.90
50969;DHT22;36982;51.474;7.228;2023-07-31T08:55:06;17.20;99.90
50969;DHT22;36982;51.474;7.228;2023-07-31T08:57:32;17.20;99.90
50969;DHT22;36982;51.474;7.228;2023-07-31T09:00:00;17.10;99.90
50969;DHT22;36982;51.474;7.228;2023-07-31T09:02:34;17.10;99.90
50969;DHT22;36982;51.474;7.228;2023-07-31T09:05:01;17.10;99.90
50969;DHT22;36982;51.474;7.228;2023-07-31T09:07:29;17.20;99.90
50969;DHT22;36982;51.474;7.228;2023-07-31T09:09:54;17.00;99.90
50969;DHT22;36982;51.474;7.228;2023-07-31T09:12:20;17.20;99.90
50969;DHT22;36982;51.474;7.228;2023-07-31T09:14:47;17.20;99.90
50969;DHT22;36982;51.474;7.228;2023-07-31T09:17:13;17.30;99.90
50969;DHT22;36982;51.474;7.228;2023-07-31T09:19:38;17.30;99.90
50969;DHT22;36982;51.474;7.228;2023-07-31T09:22:05;17.40;99.90
50969;DHT22;36982;51.474;7.228;2023-07-31T09:24:33;17.30;99.90
50969;DHT22;36982;51.474;7.228;2023-07-31T09:27:00;17.10;99.90
50969;DHT22;36982;51.474;7.228;2023-07-31T09:29:28;17.10;99.90
50969;DHT22;36982;51.474;7.228;2023-07-31T09:31:55;17.20;99.90
50969;DHT22;36982;51.474;7.228;2023-07-31T09:34:37;17.10;99.90
50969;DHT22;36982;51.474;7.228;2023-07-31T09:37:06;17.10;99.90
50969;DHT22;36982;51.474;7.228;2023-07-31T09:39:32;17.20;99.90
50969;DHT22;36982;51.474;7.228;2023-07-31T09:41:57;17.20;99.90
50969;DHT22;36982;51.474;7.228;2023-07-31T09:44:40;17.20;99.90
50969;DHT22;36982;51.474;7.228;2023-07-31T09:47:06;17.30;99.90
50969;DHT22;36982;51.474;7.228;2023-07-31T09:49:32;17.30;99.90
50969;DHT22;36982;51.474;7.228;2023-07-31T09:51:57;17.50;99.90
50969;DHT22;36982;51.474;7.228;2023-07-31T09:54:23;17.70;99.90
50969;DHT22;36982;51.474;7.228;2023-07-31T09:56:49;17.70;99.90
50969;DHT22;36982;51.474;7.228;2023-07-31T09:59:17;17.80;99.90
50969;DHT22;36982;51.474;7.228;2023-07-31T10:01:44;17.60;99.90
50969;DHT22;36982;51.474;7.228;2023-07-31T10:04:12;17.60;99.90
50969;DHT22;36982;51.474;7.228;2023-07-31T10:06:38;17.50;99.90
50969;DHT22;36982;51.474;7.228;2023-07-31T10:09:06;17.70;99.90
50969;DHT22;36982;51.474;7.228;2023-07-31T10:11:45;17.70;99.90
50969;DHT22;36982;51.474;7.228;2023-07-31T10:14:18;17.80;99.90
50969;DHT22;36982;51.474;7.228;2023-07-31T10:16:43;17.90;99.90
50969;DHT22;36982;51.474;7.228;2023-07-31T10:19:10;18.00;99.90
50969;DHT22;36982;51.474;7.228;2023-07-31T10:21:36;18.00;99.90
50969;DHT22;36982;51.474;7.228;2023-07-31T10:24:04;17.90;99.90
50969;DHT22;36982;51.474;7.228;2023-07-31T10:26:31;18.00;99.90
50969;DHT22;36982;51.474;7.228;2023-07-31T10:28:58;18.00;99.90
50969;DHT22;36982;51.474;7.228;2023-07-31T10:31:24;18.00;99.90
50969;DHT22;36982;51.474;7.228;2023-07-31T10:33:50;18.00;99.90
50969;DHT22;36982;51.474;7.228;2023-07-31T10:36:19;18.20;99.90
50969;DHT22;36982;51.474;7.228;2023-07-31T10:38:45;18.00;99.90
50969;DHT22;36982;51.474;7.228;2023-07-31T10:41:11;17.80;99.90
50969;DHT22;36982;51.474;7.228;2023-07-31T10:43:38;17.80;99.90
50969;DHT22;36982;51.474;7.228;2023-07-31T10:46:13;17.60;99.90
50969;DHT22;36982;51.474;7.228;2023-07-31T10:48:40;17.60;99.90
50969;DHT22;36982;51.474;7.228;2023-07-31T10:51:10;17.60;99.90
50969;DHT22;36982;51.474;7.228;2023-07-31T10:53:37;17.50;99.90
50969;DHT22;36982;51.474;7.228;2023-07-31T10:56:05;17.70;99.90
50969;DHT22;36982;51.474;7.228;2023-07-31T10:58:31;17.70;99.90
50969;DHT22;36982;51.474;7.228;2023-07-31T11:00:59;17.60;99.90
50969;DHT22;36982;51.474;7.228;2023-07-31T11:03:27;17.50;99.90
50969;DHT22;36982;51.474;7.228;2023-07-31T11:08:27;17.30;99.90
50969;DHT22;36982;51.474;7.228;2023-07-31T11:13:32;17.30;99.90
50969;DHT22;36982;51.474;7.228;2023-07-31T11:15:58;17.30;99.90
50969;DHT22;36982;51.474;7.228;2023-07-31T11:18:24;17.60;99.90
50969;DHT22;36982;51.474;7.228;2023-07-31T11:20:51;17.50;99.90
50969;DHT22;36982;51.474;7.228;2023-07-31T11:23:17;17.50;99.90
50969;DHT22;36982;51.474;7.228;2023-07-31T11:25:43;17.60;99.90
50969;DHT22;36982;51.474;7.228;2023-07-31T11:28:10;17.60;99.90
50969;DHT22;36982;51.474;7.228;2023-07-31T11:30:37;17.70;99.90
50969;DHT22;36982;51.474;7.228;2023-07-31T11:33:05;17.70;99.90
50969;DHT22;36982;51.474;7.228;2023-07-31T11:35:36;17.90;99.90
50969;DHT22;36982;51.474;7.228;2023-07-31T11:38:02;17.90;99.90
50969;DHT22;36982;51.474;7.228;2023-07-31T11:40:28;18.00;99.90
50969;DHT22;36982;51.474;7.228;2023-07-31T11:42:58;18.10;99.90
50969;DHT22;36982;51.474;7.228;2023-07-31T11:45:29;18.20;99.90
50969;DHT22;36982;51.474;7.228;2023-07-31T11:47:55;18.10;99.90
50969;DHT22;36982;51.474;7.228;2023-07-31T11:50:23;18.10;99.90
50969;DHT22;36982;51.474;7.228;2023-07-31T11:52:55;18.20;99.90
50969;DHT22;36982;51.474;7.228;2023-07-31T11:55:22;18.30;99.90
50969;DHT22;36982;51.474;7.228;2023-07-31T11:57:50;18.30;99.90
50969;DHT22;36982;51.474;7.228;2023-07-31T12:00:17;18.30;99.90
50969;DHT22;36982;51.474;7.228;2023-07-31T12:02:43;18.40;99.90
50969;DHT22;36982;51.474;7.228;2023-07-31T12:05:12;18.50;99.90
50969;DHT22;36982;51.474;7.228;2023-07-31T12:07:49;18.50;99.90
50969;DHT22;36982;51.474;7.228;2023-07-31T12:10:33;18.50;99.90
50969;DHT22;36982;51.474;7.228;2023-07-31T12:13:00;19.00;99.90
50969;DHT22;36982;51.474;7.228;2023-07-31T12:15:46;19.00;99.90
50969;DHT22;36982;51.474;7.228;2023-07-31T12:18:20;18.70;99.90
50969;DHT22;36982;51.474;7.228;2023-07-31T12:20:54;18.80;99.90
50969;DHT22;36982;51.474;7.228;2023-07-31T12:23:21;18.80;99.80
50969;DHT22;36982;51.474;7.228;2023-07-31T12:26:13;18.80;99.90
50969;DHT22;36982;51.474;7.228;2023-07-31T12:28:47;18.60;99.90
50969;DHT22;36982;51.474;7.228;2023-07-31T12:31:18;18.70;99.90
50969;DHT22;36982;51.474;7.228;2023-07-31T12:33:45;18.60;99.90
50969;DHT22;36982;51.474;7.228;2023-07-31T12:36:12;18.60;99.90
50969;DHT22;36982;51.474;7.228;2023-07-31T12:38:38;18.60;99.90
50969;DHT22;36982;51.474;7.228;2023-07-31T12:41:04;18.60;99.90
50969;DHT22;36982;51.474;7.228;2023-07-31T12:43:31;18.60;99.90
50969;DHT22;36982;51.474;7.228;2023-07-31T12:45:57;18.60;99.90
50969;DHT22;36982;51.474;7.228;2023-07-31T12:48:23;18.70;99.90
50969;DHT22;36982;51.474;7.228;2023-07-31T12:50:48;18.60;99.90
50969;DHT22;36982;51.474;7.228;2023-07-31T12:53:15;18.60;99.90
50969;DHT22;36982;51.474;7.228;2023-07-31T12:55:41;18.70;99.90
50969;DHT22;36982;51.474;7.228;2023-07-31T12:58:06;18.80;99.90
50969;DHT22;36982;51.474;7.228;2023-07-31T13:00:32;18.80;99.90
50969;DHT22;36982;51.474;7.228;2023-07-31T13:02:58;18.80;99.90
50969;DHT22;36982;51.474;7.228;2023-07-31T13:05:24;18.80;99.90
50969;DHT22;36982;51.474;7.228;2023-07-31T13:07:49;18.70;99.90
50969;DHT22;36982;51.474;7.228;2023-07-31T13:10:15;18.80;99.90
50969;DHT22;36982;51.474;7.228;2023-07-31T13:12:41;18.90;99.90
50969;DHT22;36982;51.474;7.228;2023-07-31T13:15:07;18.90;99.80
50969;DHT22;36982;51.474;7.228;2023-07-31T13:17:33;18.80;99.70
50969;DHT22;36982;51.474;7.228;2023-07-31T13:19:58;18.80;99.90
50969;DHT22;36982;51.474;7.228;2023-07-31T13:22:25;18.70;99.90
50969;DHT22;36982;51.474;7.228;2023-07-31T13:24:51;18.60;99.90
50969;DHT22;36982;51.474;7.228;2023-07-31T13:27:16;18.50;99.90
50969;DHT22;36982;51.474;7.228;2023-07-31T13:29:44;18.60;99.90
50969;DHT22;36982;51.474;7.228;2023-07-31T13:32:10;18.70;99.90
50969;DHT22;36982;51.474;7.228;2023-07-31T13:34:35;18.60;99.90
50969;DHT22;36982;51.474;7.228;2023-07-31T13:37:01;18.60;99.90
50969;DHT22;36982;51.474;7.228;2023-07-31T13:39:27;18.60;99.90
50969;DHT22;36982;51.474;7.228;2023-07-31T13:41:52;18.50;99.90
50969;DHT22;36982;51.474;7.228;2023-07-31T13:44:18;18.60;99.90
50969;DHT22;36982;51.474;7.228;2023-07-31T13:46:43;18.50;99.90
50969;DHT22;36982;51.474;7.228;2023-07-31T13:49:09;18.50;99.90
50969;DHT22;36982;51.474;7.228;2023-07-31T13:51:34;18.60;99.90
50969;DHT22;36982;51.474;7.228;2023-07-31T13:54:01;18.70;99.90
50969;DHT22;36982;51.474;7.228;2023-07-31T13:56:26;18.70;99.90
50969;DHT22;36982;51.474;7.228;2023-07-31T13:58:52;18.70;99.90
50969;DHT22;36982;51.474;7.228;2023-07-31T14:01:18;18.80;99.90
50969;DHT22;36982;51.474;7.228;2023-07-31T14:03:43;18.80;99.90
50969;DHT22;36982;51.474;7.228;2023-07-31T14:06:09;19.00;99.90
50969;DHT22;36982;51.474;7.228;2023-07-31T14:08:34;19.10;99.70
50969;DHT22;36982;51.474;7.228;2023-07-31T14:11:00;19.20;99.60
50969;DHT22;36982;51.474;7.228;2023-07-31T14:13:25;19.40;98.70
50969;DHT22;36982;51.474;7.228;2023-07-31T14:15:51;19.40;98.60
50969;DHT22;36982;51.474;7.228;2023-07-31T14:18:17;19.40;98.30
50969;DHT22;36982;51.474;7.228;2023-07-31T14:20:43;19.70;98.20
50969;DHT22;36982;51.474;7.228;2023-07-31T14:23:08;20.00;96.70
50969;DHT22;36982;51.474;7.228;2023-07-31T14:25:34;20.10;96.80
50969;DHT22;36982;51.474;7.228;2023-07-31T14:27:59;20.20;95.90
50969;DHT22;36982;51.474;7.228;2023-07-31T14:30:25;20.30;95.00
50969;DHT22;36982;51.474;7.228;2023-07-31T14:32:50;20.50;94.10
50969;DHT22;36982;51.474;7.228;2023-07-31T14:35:16;20.60;93.30
50969;DHT22;36982;51.474;7.228;2023-07-31T14:37:43;20.60;92.60
50969;DHT22;36982;51.474;7.228;2023-07-31T14:40:11;20.30;93.20
50969;DHT22;36982;51.474;7.228;2023-07-31T14:42:38;20.50;93.00
50969;DHT22;36982;51.474;7.228;2023-07-31T14:45:04;20.50;91.00
50969;DHT22;36982;51.474;7.228;2023-07-31T14:47:30;20.50;91.90
50969;DHT22;36982;51.474;7.228;2023-07-31T14:49:59;20.30;91.80
50969;DHT22;36982;51.474;7.228;2023-07-31T14:52:25;20.20;91.10
50969;DHT22;36982;51.474;7.228;2023-07-31T14:54:51;20.10;91.90
50969;DHT22;36982;51.474;7.228;2023-07-31T14:57:16;20.00;92.50
50969;DHT22;36982;51.474;7.228;2023-07-31T14:59:42;19.80;92.00
50969;DHT22;36982;51.474;7.228;2023-07-31T15:02:09;19.70;92.80
50969;DHT22;36982;51.474;7.228;2023-07-31T15:04:35;19.70;93.40
50969;DHT22;36982;51.474;7.228;2023-07-31T15:07:01;19.70;93.80
50969;DHT22;36982;51.474;7.228;2023-07-31T15:09:27;19.70;94.60
50969;DHT22;36982;51.474;7.228;2023-07-31T15:11:53;19.50;95.40
50969;DHT22;36982;51.474;7.228;2023-07-31T15:14:19;19.30;96.30
50969;DHT22;36982;51.474;7.228;2023-07-31T15:16:45;19.30;96.50
50969;DHT22;36982;51.474;7.228;2023-07-31T15:19:10;19.30;96.50
50969;DHT22;36982;51.474;7.228;2023-07-31T15:21:37;19.30;97.00
50969;DHT22;36982;51.474;7.228;2023-07-31T15:24:03;19.20;97.60
50969;DHT22;36982;51.474;7.228;2023-07-31T15:26:28;19.00;97.80
50969;DHT22;36982;51.474;7.228;2023-07-31T15:29:02;19.20;98.10
50969;DHT22;36982;51.474;7.228;2023-07-31T15:31:30;19.10;98.80
50969;DHT22;36982;51.474;7.228;2023-07-31T15:33:56;19.40;98.50